Aeroporto :
LOGIN :

Iscrizione | Disclaimer

   EN    FR    IT 

 










Sommario :    VFR   VFR Marginale   IFR   IFR Intensivo   IFR Molto Intensivo
Visibilità : 
Base nubi : 
>= 8 km
>= 3000ft
5 / 8 km
1000 / 3000 ft
1500m / 5 km
500 / 1000 ft
800 / 1500m
200 / 500 ft
< 800m
< 200 ft
Simboli :   Temporali  Nebbia  Neve Forte  Precipitazioni Forti  Vento > 20 kt
SIGMETs :   Varie  Temporali  Ghiacco  Turbolenza  Onda orograficha  Ceneri Vulcaniche






- Altitudine del aeroporto : 506 ft
- Codice IATA : GOT


ESGG - Landvetter

ULTIMO METAR :
  • 190620Z 17004KT 0350 R03/0650N R21/0600N FG VV002 12/12 Q1024

METARs OBSOLETI :
  • 190550Z 18004KT 0250 R03/0650N R21/0800N FG VV002 12/12 Q1024
  • 190520Z 20003KT 0200 R03/0450N R21/0600N FG VV002 12/12 Q1024
  • 190450Z 20005KT 0200 R03/0600U R21/0600N FG VV002 12/11 Q1024
  • 190420Z 17004KT 0150 R03/0400N R21/0550N FG VV002 12/11 Q1024
  • 190350Z 17005KT 0150 R03/0375N R21/0550N FG VV002 12/11 Q1024
  • 190320Z 20004KT 0150 R03/0350N R21/0450N FG VV002 12/11 Q1024

TAF TAF ESGG
Valido dal 19 a 06 ore il 20 a 06 ore UTC


190530Z 1906/2006 17005KT 0200 FG VV001
PROB40 1906/1907 3000 BR BKN005
BECMG 1909/1911 9999 NSW SCT020
PROB40 1909/1912 BKN004
BECMG 1922/1924 0300 FG VV002



MetMap, La meteo Aeronautica in un colpo d'occhio ! - Copyright ORBIFLY Dicembre 2007 - Disclaimer

ORBIFLY MET'MAP TEAM :

Programmazione e sviluppo : Alexandra Zaïnal
Concezione : Baudouin d'Aumeries
Aiuto per la programmazione : Marc-Olivier Méhu
Supporto tecnico e logistico : Manuel Goepfert
Aiuto per la traduzione : Arnaldo La Scala

Contatto : metmap@orbifly.com




FONTI E CREDITI :

   NOAA